sensor_id;sensor_type;location;lat;lon;timestamp;temperature;humidity
49503;DHT22;35409;48.776;9.204;2023-04-03T02:35:58;3.10;99.90
49503;DHT22;35409;48.776;9.204;2023-04-03T02:38:24;3.10;99.90
49503;DHT22;35409;48.776;9.204;2023-04-03T02:40:51;3.10;99.90
49503;DHT22;35409;48.776;9.204;2023-04-03T02:43:17;3.30;99.90
49503;DHT22;35409;48.776;9.204;2023-04-03T02:45:43;3.20;99.90
49503;DHT22;35409;48.776;9.204;2023-04-03T02:48:09;3.20;99.90
49503;DHT22;35409;48.776;9.204;2023-04-03T02:50:34;3.10;99.90
49503;DHT22;35409;48.776;9.204;2023-04-03T02:53:00;3.10;99.90
49503;DHT22;35409;48.776;9.204;2023-04-03T02:55:26;3.00;99.90
49503;DHT22;35409;48.776;9.204;2023-04-03T02:57:51;3.00;99.90
49503;DHT22;35409;48.776;9.204;2023-04-03T03:00:17;2.90;99.90
49503;DHT22;35409;48.776;9.204;2023-04-03T03:02:43;2.90;99.90
49503;DHT22;35409;48.776;9.204;2023-04-03T03:05:08;2.90;99.90
49503;DHT22;35409;48.776;9.204;2023-04-03T03:07:34;2.90;99.90
49503;DHT22;35409;48.776;9.204;2023-04-03T03:10:00;2.90;99.90
49503;DHT22;35409;48.776;9.204;2023-04-03T03:12:26;2.90;99.90
49503;DHT22;35409;48.776;9.204;2023-04-03T03:14:51;2.90;99.90
49503;DHT22;35409;48.776;9.204;2023-04-03T03:17:17;2.90;99.90
49503;DHT22;35409;48.776;9.204;2023-04-03T03:19:43;3.00;99.90
49503;DHT22;35409;48.776;9.204;2023-04-03T03:22:08;3.10;99.90
49503;DHT22;35409;48.776;9.204;2023-04-03T03:24:34;3.10;99.90
49503;DHT22;35409;48.776;9.204;2023-04-03T03:27:00;3.00;99.90
49503;DHT22;35409;48.776;9.204;2023-04-03T03:29:25;3.00;99.90
49503;DHT22;35409;48.776;9.204;2023-04-03T03:31:51;3.10;99.90
49503;DHT22;35409;48.776;9.204;2023-04-03T03:34:16;3.10;99.90
49503;DHT22;35409;48.776;9.204;2023-04-03T03:36:42;3.10;99.90
49503;DHT22;35409;48.776;9.204;2023-04-03T03:39:08;3.10;99.90
49503;DHT22;35409;48.776;9.204;2023-04-03T03:41:33;3.20;99.90
49503;DHT22;35409;48.776;9.204;2023-04-03T03:43:59;3.20;99.90
49503;DHT22;35409;48.776;9.204;2023-04-03T03:46:24;3.10;99.90
49503;DHT22;35409;48.776;9.204;2023-04-03T03:48:50;3.10;99.90
49503;DHT22;35409;48.776;9.204;2023-04-03T03:51:16;3.10;99.90
49503;DHT22;35409;48.776;9.204;2023-04-03T03:53:41;3.10;99.90
49503;DHT22;35409;48.776;9.204;2023-04-03T03:56:07;3.20;99.90
49503;DHT22;35409;48.776;9.204;2023-04-03T03:58:33;3.10;99.90
49503;DHT22;35409;48.776;9.204;2023-04-03T04:01:06;3.20;99.90
49503;DHT22;35409;48.776;9.204;2023-04-03T04:03:32;3.20;99.90
49503;DHT22;35409;48.776;9.204;2023-04-03T04:05:58;3.20;99.90
49503;DHT22;35409;48.776;9.204;2023-04-03T04:08:24;3.10;99.90
49503;DHT22;35409;48.776;9.204;2023-04-03T04:10:50;3.30;99.90
49503;DHT22;35409;48.776;9.204;2023-04-03T04:13:16;3.30;99.90
49503;DHT22;35409;48.776;9.204;2023-04-03T04:15:42;3.30;99.90
49503;DHT22;35409;48.776;9.204;2023-04-03T04:18:08;3.40;99.90
49503;DHT22;35409;48.776;9.204;2023-04-03T04:20:33;3.40;99.90
49503;DHT22;35409;48.776;9.204;2023-04-03T04:22:59;3.40;99.90
49503;DHT22;35409;48.776;9.204;2023-04-03T04:25:24;3.40;99.90
49503;DHT22;35409;48.776;9.204;2023-04-03T04:27:51;3.40;99.90
49503;DHT22;35409;48.776;9.204;2023-04-03T04:30:16;3.40;99.90
49503;DHT22;35409;48.776;9.204;2023-04-03T04:32:42;3.30;99.90
49503;DHT22;35409;48.776;9.204;2023-04-03T04:35:08;3.40;99.90
49503;DHT22;35409;48.776;9.204;2023-04-03T04:37:33;3.40;99.90
49503;DHT22;35409;48.776;9.204;2023-04-03T04:39:59;3.30;99.90
49503;DHT22;35409;48.776;9.204;2023-04-03T04:42:25;3.40;99.90
49503;DHT22;35409;48.776;9.204;2023-04-03T04:44:51;3.30;99.90
49503;DHT22;35409;48.776;9.204;2023-04-03T04:47:16;3.30;99.90
49503;DHT22;35409;48.776;9.204;2023-04-03T04:49:42;3.30;99.90
49503;DHT22;35409;48.776;9.204;2023-04-03T04:52:07;3.20;99.90
49503;DHT22;35409;48.776;9.204;2023-04-03T04:54:33;3.20;99.90
49503;DHT22;35409;48.776;9.204;2023-04-03T04:56:58;3.20;99.90
49503;DHT22;35409;48.776;9.204;2023-04-03T04:59:24;3.20;99.90
49503;DHT22;35409;48.776;9.204;2023-04-03T05:01:50;3.20;99.90
49503;DHT22;35409;48.776;9.204;2023-04-03T05:04:16;3.30;99.90
49503;DHT22;35409;48.776;9.204;2023-04-03T05:06:42;3.20;99.90
49503;DHT22;35409;48.776;9.204;2023-04-03T05:09:07;3.30;99.90
49503;DHT22;35409;48.776;9.204;2023-04-03T05:11:34;3.40;99.90
49503;DHT22;35409;48.776;9.204;2023-04-03T05:14:00;3.50;99.90
49503;DHT22;35409;48.776;9.204;2023-04-03T05:16:25;3.60;99.90
49503;DHT22;35409;48.776;9.204;2023-04-03T05:18:51;3.70;99.90
49503;DHT22;35409;48.776;9.204;2023-04-03T05:21:17;3.60;99.90
49503;DHT22;35409;48.776;9.204;2023-04-03T05:23:43;3.70;99.90
49503;DHT22;35409;48.776;9.204;2023-04-03T05:26:09;3.70;99.90
49503;DHT22;35409;48.776;9.204;2023-04-03T05:28:35;3.70;99.90
49503;DHT22;35409;48.776;9.204;2023-04-03T05:31:01;3.70;99.90
49503;DHT22;35409;48.776;9.204;2023-04-03T05:33:27;3.70;99.90
49503;DHT22;35409;48.776;9.204;2023-04-03T05:35:54;3.70;99.90
49503;DHT22;35409;48.776;9.204;2023-04-03T05:38:19;3.60;99.90
49503;DHT22;35409;48.776;9.204;2023-04-03T05:40:45;3.60;99.90
49503;DHT22;35409;48.776;9.204;2023-04-03T05:43:12;3.70;99.90
49503;DHT22;35409;48.776;9.204;2023-04-03T05:45:38;3.80;99.90
49503;DHT22;35409;48.776;9.204;2023-04-03T05:48:03;3.80;99.90
49503;DHT22;35409;48.776;9.204;2023-04-03T05:50:29;3.70;99.90
49503;DHT22;35409;48.776;9.204;2023-04-03T05:52:57;3.60;99.90
49503;DHT22;35409;48.776;9.204;2023-04-03T05:55:24;3.70;99.90
49503;DHT22;35409;48.776;9.204;2023-04-03T05:57:49;3.70;99.90
49503;DHT22;35409;48.776;9.204;2023-04-03T06:00:16;3.70;99.90
49503;DHT22;35409;48.776;9.204;2023-04-03T06:02:42;3.60;99.90
49503;DHT22;35409;48.776;9.204;2023-04-03T06:05:09;3.70;99.90
49503;DHT22;35409;48.776;9.204;2023-04-03T06:07:36;3.60;99.90
49503;DHT22;35409;48.776;9.204;2023-04-03T06:10:03;3.60;99.90
49503;DHT22;35409;48.776;9.204;2023-04-03T06:12:28;3.60;99.90
49503;DHT22;35409;48.776;9.204;2023-04-03T06:14:55;3.60;99.90
49503;DHT22;35409;48.776;9.204;2023-04-03T06:17:21;3.60;99.90
49503;DHT22;35409;48.776;9.204;2023-04-03T06:19:47;3.60;99.90
49503;DHT22;35409;48.776;9.204;2023-04-03T06:22:13;3.60;99.90
49503;DHT22;35409;48.776;9.204;2023-04-03T06:24:39;3.70;99.90
49503;DHT22;35409;48.776;9.204;2023-04-03T06:27:05;3.80;99.90
49503;DHT22;35409;48.776;9.204;2023-04-03T06:29:31;3.90;99.90
49503;DHT22;35409;48.776;9.204;2023-04-03T06:31:56;3.90;99.90
49503;DHT22;35409;48.776;9.204;2023-04-03T06:34:22;3.90;99.90
49503;DHT22;35409;48.776;9.204;2023-04-03T06:36:47;4.00;99.90
49503;DHT22;35409;48.776;9.204;2023-04-03T06:39:19;4.10;99.90
49503;DHT22;35409;48.776;9.204;2023-04-03T06:41:48;4.10;99.90
49503;DHT22;35409;48.776;9.204;2023-04-03T06:44:14;4.20;99.90
49503;DHT22;35409;48.776;9.204;2023-04-03T06:46:41;4.10;99.90
49503;DHT22;35409;48.776;9.204;2023-04-03T06:49:07;4.20;99.90
49503;DHT22;35409;48.776;9.204;2023-04-03T06:51:34;4.10;99.90
49503;DHT22;35409;48.776;9.204;2023-04-03T06:54:01;4.10;99.90
49503;DHT22;35409;48.776;9.204;2023-04-03T06:56:27;4.10;99.90
49503;DHT22;35409;48.776;9.204;2023-04-03T06:58:54;4.20;99.90
49503;DHT22;35409;48.776;9.204;2023-04-03T07:01:22;4.30;99.90
49503;DHT22;35409;48.776;9.204;2023-04-03T07:03:48;4.40;99.90
49503;DHT22;35409;48.776;9.204;2023-04-03T07:06:16;4.50;99.90
49503;DHT22;35409;48.776;9.204;2023-04-03T07:08:42;4.50;99.90
49503;DHT22;35409;48.776;9.204;2023-04-03T07:11:08;4.60;99.90
49503;DHT22;35409;48.776;9.204;2023-04-03T07:13:34;4.60;99.90
49503;DHT22;35409;48.776;9.204;2023-04-03T07:16:00;4.70;99.90
49503;DHT22;35409;48.776;9.204;2023-04-03T07:18:26;4.80;99.90
49503;DHT22;35409;48.776;9.204;2023-04-03T07:20:52;4.80;99.90
49503;DHT22;35409;48.776;9.204;2023-04-03T07:23:18;4.80;99.90
49503;DHT22;35409;48.776;9.204;2023-04-03T07:25:48;4.80;99.90
49503;DHT22;35409;48.776;9.204;2023-04-03T07:28:16;4.80;99.90
49503;DHT22;35409;48.776;9.204;2023-04-03T07:30:48;4.80;99.90
49503;DHT22;35409;48.776;9.204;2023-04-03T07:33:16;4.90;99.90
49503;DHT22;35409;48.776;9.204;2023-04-03T07:35:43;4.90;99.90
49503;DHT22;35409;48.776;9.204;2023-04-03T07:38:09;5.00;99.90
49503;DHT22;35409;48.776;9.204;2023-04-03T07:40:35;5.00;99.90
49503;DHT22;35409;48.776;9.204;2023-04-03T07:43:01;5.10;99.90
49503;DHT22;35409;48.776;9.204;2023-04-03T07:45:28;5.20;99.90
49503;DHT22;35409;48.776;9.204;2023-04-03T07:47:53;5.40;99.90
49503;DHT22;35409;48.776;9.204;2023-04-03T07:50:19;5.40;99.90
49503;DHT22;35409;48.776;9.204;2023-04-03T07:52:45;5.40;99.90
49503;DHT22;35409;48.776;9.204;2023-04-03T07:55:11;5.30;99.90
49503;DHT22;35409;48.776;9.204;2023-04-03T07:57:37;5.30;99.90
49503;DHT22;35409;48.776;9.204;2023-04-03T08:00:04;5.30;99.90
49503;DHT22;35409;48.776;9.204;2023-04-03T08:02:30;5.30;99.90
49503;DHT22;35409;48.776;9.204;2023-04-03T08:04:58;5.50;99.90
49503;DHT22;35409;48.776;9.204;2023-04-03T08:07:24;5.70;99.90
49503;DHT22;35409;48.776;9.204;2023-04-03T08:09:49;5.50;99.90
49503;DHT22;35409;48.776;9.204;2023-04-03T08:12:16;5.60;99.90
49503;DHT22;35409;48.776;9.204;2023-04-03T08:14:41;5.70;99.90
49503;DHT22;35409;48.776;9.204;2023-04-03T08:17:07;5.70;99.90
49503;DHT22;35409;48.776;9.204;2023-04-03T08:19:39;5.60;99.90
49503;DHT22;35409;48.776;9.204;2023-04-03T08:22:05;5.60;99.90
49503;DHT22;35409;48.776;9.204;2023-04-03T08:24:34;5.60;99.90
49503;DHT22;35409;48.776;9.204;2023-04-03T08:27:00;5.50;99.90
49503;DHT22;35409;48.776;9.204;2023-04-03T08:29:26;5.60;99.90
49503;DHT22;35409;48.776;9.204;2023-04-03T08:31:52;5.80;99.90
49503;DHT22;35409;48.776;9.204;2023-04-03T08:34:19;5.70;99.90
49503;DHT22;35409;48.776;9.204;2023-04-03T08:36:45;5.80;99.90
49503;DHT22;35409;48.776;9.204;2023-04-03T08:39:11;5.70;99.90
49503;DHT22;35409;48.776;9.204;2023-04-03T08:41:39;5.70;99.90
49503;DHT22;35409;48.776;9.204;2023-04-03T08:44:21;5.70;99.90
49503;DHT22;35409;48.776;9.204;2023-04-03T08:49:37;5.90;99.90
49503;DHT22;35409;48.776;9.204;2023-04-03T08:52:11;5.90;99.90
49503;DHT22;35409;48.776;9.204;2023-04-03T14:40:24;9.30;87.40
49503;DHT22;35409;48.776;9.204;2023-04-03T14:42:50;9.60;84.30
49503;DHT22;35409;48.776;9.204;2023-04-03T14:45:23;9.90;83.70
49503;DHT22;35409;48.776;9.204;2023-04-03T14:47:52;9.60;85.00
49503;DHT22;35409;48.776;9.204;2023-04-03T14:50:21;9.00;84.40
49503;DHT22;35409;48.776;9.204;2023-04-03T14:52:48;8.50;85.40
49503;DHT22;35409;48.776;9.204;2023-04-03T14:55:16;8.20;86.00
49503;DHT22;35409;48.776;9.204;2023-04-03T14:57:42;8.00;87.00
49503;DHT22;35409;48.776;9.204;2023-04-03T15:00:14;8.00;88.00
49503;DHT22;35409;48.776;9.204;2023-04-03T15:02:40;7.90;87.40
49503;DHT22;35409;48.776;9.204;2023-04-03T15:05:08;7.90;87.10
49503;DHT22;35409;48.776;9.204;2023-04-03T15:07:43;7.80;86.80
49503;DHT22;35409;48.776;9.204;2023-04-03T15:10:16;7.70;86.80
49503;DHT22;35409;48.776;9.204;2023-04-03T15:12:43;7.70;88.40
49503;DHT22;35409;48.776;9.204;2023-04-03T15:15:09;7.70;88.80
49503;DHT22;35409;48.776;9.204;2023-04-03T15:17:36;7.90;86.90
49503;DHT22;35409;48.776;9.204;2023-04-03T15:20:03;7.90;86.40
49503;DHT22;35409;48.776;9.204;2023-04-03T15:22:28;8.00;86.50
49503;DHT22;35409;48.776;9.204;2023-04-03T15:24:54;8.20;83.80
49503;DHT22;35409;48.776;9.204;2023-04-03T15:27:20;8.20;84.00
49503;DHT22;35409;48.776;9.204;2023-04-03T15:29:46;8.00;83.40
49503;DHT22;35409;48.776;9.204;2023-04-03T15:32:12;7.80;82.00
49503;DHT22;35409;48.776;9.204;2023-04-03T15:34:38;7.50;82.70
49503;DHT22;35409;48.776;9.204;2023-04-03T15:37:04;7.40;84.50
49503;DHT22;35409;48.776;9.204;2023-04-03T15:39:31;7.40;85.50
49503;DHT22;35409;48.776;9.204;2023-04-03T15:41:56;7.30;85.00
49503;DHT22;35409;48.776;9.204;2023-04-03T15:44:25;7.10;86.40
49503;DHT22;35409;48.776;9.204;2023-04-03T15:46:50;6.90;86.20
49503;DHT22;35409;48.776;9.204;2023-04-03T15:49:17;6.90;86.90
49503;DHT22;35409;48.776;9.204;2023-04-03T15:51:43;7.40;87.00
49503;DHT22;35409;48.776;9.204;2023-04-03T15:54:09;7.90;85.50
49503;DHT22;35409;48.776;9.204;2023-04-03T15:56:34;8.60;83.70
49503;DHT22;35409;48.776;9.204;2023-04-03T15:59:00;8.90;82.00
49503;DHT22;35409;48.776;9.204;2023-04-03T16:01:26;8.90;82.20
49503;DHT22;35409;48.776;9.204;2023-04-03T16:03:52;9.00;80.60
49503;DHT22;35409;48.776;9.204;2023-04-03T16:06:18;9.00;79.60
49503;DHT22;35409;48.776;9.204;2023-04-03T16:08:44;9.00;79.90
49503;DHT22;35409;48.776;9.204;2023-04-03T16:11:11;9.20;79.50
49503;DHT22;35409;48.776;9.204;2023-04-03T16:13:37;9.40;79.30
49503;DHT22;35409;48.776;9.204;2023-04-03T16:16:04;8.90;78.50
49503;DHT22;35409;48.776;9.204;2023-04-03T16:18:30;8.60;79.90
49503;DHT22;35409;48.776;9.204;2023-04-03T16:20:56;8.30;80.00
49503;DHT22;35409;48.776;9.204;2023-04-03T16:23:22;7.90;80.00
49503;DHT22;35409;48.776;9.204;2023-04-03T16:25:48;7.60;79.80
49503;DHT22;35409;48.776;9.204;2023-04-03T16:28:16;7.40;81.40
49503;DHT22;35409;48.776;9.204;2023-04-03T16:30:45;7.20;81.40
49503;DHT22;35409;48.776;9.204;2023-04-03T16:33:12;7.00;81.20
49503;DHT22;35409;48.776;9.204;2023-04-03T16:35:38;6.80;81.10
49503;DHT22;35409;48.776;9.204;2023-04-03T16:38:04;6.80;81.20
49503;DHT22;35409;48.776;9.204;2023-04-03T16:40:30;6.80;82.80
49503;DHT22;35409;48.776;9.204;2023-04-03T16:42:55;6.90;83.50
49503;DHT22;35409;48.776;9.204;2023-04-03T16:45:21;7.00;81.30
49503;DHT22;35409;48.776;9.204;2023-04-03T16:47:46;7.00;82.90
49503;DHT22;35409;48.776;9.204;2023-04-03T16:50:12;7.10;82.20
49503;DHT22;35409;48.776;9.204;2023-04-03T16:52:38;7.10;82.80
49503;DHT22;35409;48.776;9.204;2023-04-03T16:55:04;7.00;83.70
49503;DHT22;35409;48.776;9.204;2023-04-03T16:57:29;6.90;83.60
49503;DHT22;35409;48.776;9.204;2023-04-03T16:59:55;6.80;83.30
49503;DHT22;35409;48.776;9.204;2023-04-03T17:02:22;6.70;83.00
49503;DHT22;35409;48.776;9.204;2023-04-03T17:04:50;6.70;84.10
49503;DHT22;35409;48.776;9.204;2023-04-03T17:07:18;6.80;84.50
49503;DHT22;35409;48.776;9.204;2023-04-03T17:09:43;6.80;85.40
49503;DHT22;35409;48.776;9.204;2023-04-03T17:12:09;6.90;84.60
49503;DHT22;35409;48.776;9.204;2023-04-03T17:14:35;6.80;84.50
49503;DHT22;35409;48.776;9.204;2023-04-03T17:17:00;6.80;85.00
49503;DHT22;35409;48.776;9.204;2023-04-03T17:19:28;6.60;84.90
49503;DHT22;35409;48.776;9.204;2023-04-03T17:21:53;6.60;84.00
49503;DHT22;35409;48.776;9.204;2023-04-03T17:24:19;6.50;85.30
49503;DHT22;35409;48.776;9.204;2023-04-03T17:26:45;6.40;85.00
49503;DHT22;35409;48.776;9.204;2023-04-03T17:29:10;6.30;85.60
49503;DHT22;35409;48.776;9.204;2023-04-03T17:31:36;6.30;86.10
49503;DHT22;35409;48.776;9.204;2023-04-03T17:34:02;6.20;86.00
49503;DHT22;35409;48.776;9.204;2023-04-03T17:36:30;6.10;86.10
49503;DHT22;35409;48.776;9.204;2023-04-03T17:38:59;6.00;86.10
49503;DHT22;35409;48.776;9.204;2023-04-03T17:41:25;6.00;87.00
49503;DHT22;35409;48.776;9.204;2023-04-03T17:43:51;6.00;87.10
49503;DHT22;35409;48.776;9.204;2023-04-03T17:46:16;5.90;87.40
49503;DHT22;35409;48.776;9.204;2023-04-03T17:48:43;5.80;87.10
49503;DHT22;35409;48.776;9.204;2023-04-03T17:51:14;5.80;87.30
49503;DHT22;35409;48.776;9.204;2023-04-03T17:53:42;5.70;88.10
49503;DHT22;35409;48.776;9.204;2023-04-03T17:56:15;5.70;88.30
49503;DHT22;35409;48.776;9.204;2023-04-03T17:58:41;5.60;89.20
49503;DHT22;35409;48.776;9.204;2023-04-03T18:01:16;5.50;89.00
49503;DHT22;35409;48.776;9.204;2023-04-03T18:03:43;5.60;89.30
49503;DHT22;35409;48.776;9.204;2023-04-03T18:06:17;5.50;88.60
49503;DHT22;35409;48.776;9.204;2023-04-03T18:08:47;5.50;90.10
49503;DHT22;35409;48.776;9.204;2023-04-03T18:11:14;5.50;90.00
49503;DHT22;35409;48.776;9.204;2023-04-03T18:13:40;5.50;89.70
49503;DHT22;35409;48.776;9.204;2023-04-03T18:16:07;5.50;90.00
49503;DHT22;35409;48.776;9.204;2023-04-03T21:25:59;2.40;99.90
49503;DHT22;35409;48.776;9.204;2023-04-03T21:28:25;2.30;99.90
49503;DHT22;35409;48.776;9.204;2023-04-03T21:30:51;2.10;99.90
49503;DHT22;35409;48.776;9.204;2023-04-03T21:33:17;2.10;99.90
49503;DHT22;35409;48.776;9.204;2023-04-03T21:35:42;2.00;99.90
49503;DHT22;35409;48.776;9.204;2023-04-03T21:38:08;2.10;99.90
49503;DHT22;35409;48.776;9.204;2023-04-03T21:40:33;2.10;99.90
49503;DHT22;35409;48.776;9.204;2023-04-03T21:42:59;2.10;99.90
49503;DHT22;35409;48.776;9.204;2023-04-03T21:45:25;2.10;99.90
49503;DHT22;35409;48.776;9.204;2023-04-03T21:47:51;2.10;99.90
49503;DHT22;35409;48.776;9.204;2023-04-03T21:50:17;2.00;99.90
49503;DHT22;35409;48.776;9.204;2023-04-03T21:52:43;1.90;99.90
49503;DHT22;35409;48.776;9.204;2023-04-03T21:55:09;1.90;99.90
49503;DHT22;35409;48.776;9.204;2023-04-03T21:57:35;1.90;99.90
49503;DHT22;35409;48.776;9.204;2023-04-03T22:00:01;1.80;99.90
49503;DHT22;35409;48.776;9.204;2023-04-03T22:02:28;1.70;99.90
49503;DHT22;35409;48.776;9.204;2023-04-03T22:04:56;1.50;99.90
49503;DHT22;35409;48.776;9.204;2023-04-03T22:07:22;1.40;99.90
49503;DHT22;35409;48.776;9.204;2023-04-03T22:09:48;1.30;99.90
49503;DHT22;35409;48.776;9.204;2023-04-03T22:12:13;1.30;99.90
49503;DHT22;35409;48.776;9.204;2023-04-03T22:14:40;1.30;99.90
49503;DHT22;35409;48.776;9.204;2023-04-03T22:17:06;1.20;99.90
49503;DHT22;35409;48.776;9.204;2023-04-03T22:19:32;1.30;99.90
49503;DHT22;35409;48.776;9.204;2023-04-03T22:21:58;1.30;99.90
49503;DHT22;35409;48.776;9.204;2023-04-03T22:24:24;1.20;99.90
49503;DHT22;35409;48.776;9.204;2023-04-03T22:26:49;1.10;99.90
49503;DHT22;35409;48.776;9.204;2023-04-03T22:29:15;1.00;99.90
49503;DHT22;35409;48.776;9.204;2023-04-03T22:31:41;0.90;99.90
49503;DHT22;35409;48.776;9.204;2023-04-03T22:34:07;0.80;99.90
49503;DHT22;35409;48.776;9.204;2023-04-03T22:36:32;0.80;99.90
49503;DHT22;35409;48.776;9.204;2023-04-03T22:38:58;0.80;99.90
49503;DHT22;35409;48.776;9.204;2023-04-03T22:41:25;0.70;99.90
49503;DHT22;35409;48.776;9.204;2023-04-03T22:43:50;0.60;99.90
49503;DHT22;35409;48.776;9.204;2023-04-03T22:46:16;0.60;99.90
49503;DHT22;35409;48.776;9.204;2023-04-03T22:48:42;0.60;99.90
49503;DHT22;35409;48.776;9.204;2023-04-03T22:51:10;0.60;99.90
49503;DHT22;35409;48.776;9.204;2023-04-03T22:53:36;0.50;99.90
49503;DHT22;35409;48.776;9.204;2023-04-03T22:56:03;0.50;99.90
